createdAt,value
2019-04-23T00:01:29.912Z,20.49
2019-04-23T00:03:59.567Z,20.54
2019-04-23T00:06:40.657Z,20.53
2019-04-23T00:09:10.931Z,20.48
2019-04-23T00:11:35.630Z,20.35
2019-04-23T00:14:07.939Z,20.43
2019-04-23T00:16:39.011Z,20.40
2019-04-23T00:19:03.075Z,20.41
2019-04-23T00:21:50.322Z,20.29
2019-04-23T00:24:46.554Z,20.19
2019-04-23T00:27:15.430Z,20.17
2019-04-23T00:29:36.794Z,20.11
2019-04-23T00:32:08.456Z,20.14
2019-04-23T00:34:44.529Z,20.05
2019-04-23T00:37:11.308Z,20.02
2019-04-23T00:39:44.004Z,19.99
2019-04-23T00:42:17.658Z,19.98
2019-04-23T00:44:47.566Z,19.94
2019-04-23T00:47:08.922Z,19.89
2019-04-23T00:49:41.494Z,19.92
2019-04-23T00:52:15.127Z,19.87
2019-04-23T00:54:51.917Z,19.86
2019-04-23T00:57:21.825Z,19.89
2019-04-23T00:59:53.719Z,19.92
2019-04-23T01:02:16.726Z,19.90
2019-04-23T01:04:48.180Z,19.89
2019-04-23T01:07:18.558Z,19.94
2019-04-23T01:10:00.892Z,19.89
2019-04-23T01:12:31.735Z,19.76
2019-04-23T01:15:02.820Z,19.74
2019-04-23T01:17:39.807Z,19.66
2019-04-23T01:20:18.861Z,19.70
2019-04-23T01:22:27.601Z,19.57
2019-04-23T01:25:11.240Z,19.44
2019-04-23T01:28:17.442Z,19.46
2019-04-23T01:30:34.338Z,19.50
2019-04-23T01:33:03.882Z,19.53
2019-04-23T01:35:39.847Z,19.37
2019-04-23T01:38:04.562Z,19.38
2019-04-23T01:40:36.460Z,19.27
2019-04-23T01:43:04.323Z,19.28
2019-04-23T01:45:31.594Z,19.33
2019-04-23T01:48:05.230Z,19.35
2019-04-23T01:50:43.465Z,19.39
2019-04-23T01:53:14.999Z,19.37
2019-04-23T01:58:25.823Z,19.41
2019-04-23T02:01:03.311Z,19.34
2019-04-23T02:03:14.957Z,19.38
2019-04-23T02:05:48.332Z,19.41
2019-04-23T02:08:12.861Z,19.41
2019-04-23T02:13:26.650Z,19.35
2019-04-23T02:15:49.398Z,19.36
2019-04-23T02:20:55.172Z,19.40
2019-04-23T02:26:09.000Z,19.51
2019-04-23T02:28:49.323Z,19.42
2019-04-23T02:33:49.850Z,19.36
2019-04-23T02:36:11.432Z,19.33
2019-04-23T02:41:27.148Z,19.35
2019-04-23T02:43:59.565Z,19.33
2019-04-23T02:49:09.770Z,19.37
2019-04-23T02:56:49.309Z,19.46
2019-04-23T02:59:11.030Z,19.49
2019-04-23T03:01:31.961Z,19.46
2019-04-23T03:09:14.870Z,19.47
2019-04-23T03:19:40.165Z,19.34
2019-04-23T03:24:55.090Z,19.26
2019-04-23T03:27:28.725Z,19.28
2019-04-23T03:40:04.571Z,19.05
2019-04-23T03:42:37.934Z,18.97
2019-04-23T03:45:16.784Z,18.94
2019-04-23T03:47:33.128Z,18.93
2019-04-23T03:52:39.184Z,18.86
2019-04-23T04:00:31.094Z,18.66
2019-04-23T04:02:52.440Z,18.57
2019-04-23T04:05:10.803Z,18.51
2019-04-23T04:12:39.864Z,18.53
2019-04-23T04:15:31.737Z,18.56
2019-04-23T04:17:50.291Z,18.49
2019-04-23T04:20:24.517Z,18.50
2019-04-23T04:25:39.301Z,18.43
2019-04-23T04:28:05.125Z,18.41
2019-04-23T04:33:15.079Z,18.47
2019-04-23T04:35:44.726Z,18.51
2019-04-23T04:38:24.997Z,18.48
2019-04-23T04:46:05.723Z,18.40
2019-04-23T04:48:26.931Z,18.33
2019-04-23T04:56:07.586Z,18.33
2019-04-23T04:58:30.828Z,18.38
2019-04-23T05:11:09.302Z,18.20
2019-04-23T05:16:10.033Z,18.18
2019-04-23T05:19:02.679Z,18.19
2019-04-23T05:24:21.413Z,18.22
2019-04-23T05:26:52.362Z,18.22
2019-04-23T05:29:14.867Z,18.21
2019-04-23T05:31:52.911Z,18.17
2019-04-23T05:34:21.716Z,18.19
2019-04-23T05:37:14.673Z,18.19
2019-04-23T05:42:00.665Z,18.13
2019-04-23T05:44:52.842Z,18.15
2019-04-23T05:47:13.295Z,18.14
2019-04-23T05:49:31.241Z,18.10
2019-04-23T05:52:27.820Z,18.11
2019-04-23T05:54:43.251Z,18.09
2019-04-23T05:57:07.000Z,18.09
2019-04-23T05:59:37.583Z,18.15
2019-04-23T06:02:26.264Z,18.18
2019-04-23T06:04:43.037Z,18.19
2019-04-23T06:07:22.031Z,18.23
2019-04-23T06:09:49.317Z,18.25
2019-04-23T06:12:15.536Z,18.24
2019-04-23T06:14:50.863Z,18.29
2019-04-23T06:17:22.935Z,18.31
2019-04-23T06:19:49.589Z,18.38
2019-04-23T06:29:57.086Z,18.61
2019-04-23T06:32:34.302Z,18.66
2019-04-23T06:35:19.196Z,18.71
2019-04-23T06:37:49.570Z,18.69
2019-04-23T06:40:08.718Z,18.70
2019-04-23T06:42:56.225Z,18.70
2019-04-23T06:45:25.346Z,18.74
2019-04-23T06:47:56.484Z,18.83
2019-04-23T06:50:30.192Z,18.84
2019-04-23T06:52:53.516Z,18.91
2019-04-23T06:55:30.119Z,18.92
2019-04-23T06:58:06.885Z,18.92
2019-04-23T07:00:34.202Z,18.88
2019-04-23T07:02:59.701Z,18.87
2019-04-23T07:06:03.782Z,18.89
2019-04-23T07:08:34.470Z,18.97
2019-04-23T07:10:58.001Z,19.01
2019-04-23T07:13:31.200Z,19.12
2019-04-23T07:15:55.191Z,19.21
2019-04-23T07:18:23.735Z,19.23
2019-04-23T07:21:00.525Z,19.30
2019-04-23T07:23:41.223Z,19.29
2019-04-23T07:26:10.590Z,19.26
2019-04-23T07:28:39.018Z,19.25
2019-04-23T07:31:19.255Z,19.32
2019-04-23T07:33:45.902Z,19.29
2019-04-23T07:36:11.390Z,19.23
2019-04-23T07:39:01.493Z,19.21
2019-04-23T07:44:54.517Z,19.28
2019-04-23T07:47:40.109Z,19.26
2019-04-23T07:50:38.164Z,19.32
2019-04-23T07:52:51.517Z,19.41
2019-04-23T07:55:19.363Z,19.46
2019-04-23T07:57:51.527Z,19.51
2019-04-23T08:00:18.294Z,19.59
2019-04-23T08:02:44.066Z,19.70
2019-04-23T08:05:22.387Z,19.76
2019-04-23T08:07:49.421Z,19.70
2019-04-23T08:10:22.686Z,19.67
2019-04-23T08:12:56.247Z,19.72
2019-04-23T08:15:32.749Z,19.82
2019-04-23T08:17:58.616Z,19.95
2019-04-23T08:20:47.002Z,20.00
2019-04-23T08:23:12.618Z,20.08
2019-04-23T08:26:14.343Z,20.13
2019-04-23T08:28:41.980Z,20.15
2019-04-23T08:31:08.576Z,20.14
2019-04-23T08:33:49.979Z,20.16
2019-04-23T08:36:21.714Z,20.25
2019-04-23T08:38:56.938Z,20.32
2019-04-23T08:41:27.034Z,20.32
2019-04-23T08:43:57.327Z,20.43
2019-04-23T08:47:10.334Z,20.53
2019-04-23T08:49:36.510Z,20.61
2019-04-23T08:54:47.032Z,20.73
2019-04-23T08:57:03.493Z,20.80
2019-04-23T08:59:38.860Z,20.82
2019-04-23T09:02:29.005Z,20.84
2019-04-23T09:04:42.054Z,20.86
2019-04-23T09:09:43.887Z,20.96
2019-04-23T09:12:07.011Z,20.98
2019-04-23T09:14:38.152Z,20.97
2019-04-23T09:17:23.193Z,21.05
2019-04-23T09:20:03.554Z,21.10
2019-04-23T09:24:47.131Z,21.13
2019-04-23T09:27:23.454Z,21.16
2019-04-23T09:29:51.476Z,21.16
2019-04-23T09:32:58.870Z,21.23
2019-04-23T09:35:52.757Z,21.28
2019-04-23T09:38:28.039Z,21.32
2019-04-23T09:44:25.339Z,21.42
2019-04-23T09:46:44.444Z,21.52
2019-04-23T09:49:20.845Z,21.63
2019-04-23T09:51:56.231Z,21.61
2019-04-23T09:54:24.258Z,21.70
2019-04-23T09:56:49.527Z,21.75
2019-04-23T09:59:37.735Z,21.80
2019-04-23T10:01:45.171Z,21.87
2019-04-23T10:04:13.569Z,21.91
2019-04-23T10:06:34.564Z,21.99
2019-04-23T10:09:04.430Z,22.04
2019-04-23T10:11:32.464Z,22.07
2019-04-23T10:14:02.877Z,22.19
2019-04-23T10:19:12.274Z,22.24
2019-04-23T10:21:41.936Z,22.35
2019-04-23T10:24:13.169Z,22.43
2019-04-23T10:26:43.897Z,22.49
2019-04-23T10:29:18.280Z,22.56
2019-04-23T10:31:49.245Z,22.58
2019-04-23T10:34:19.016Z,22.57
2019-04-23T10:36:53.650Z,22.52
2019-04-23T10:39:31.780Z,22.51
2019-04-23T10:42:01.216Z,22.59
2019-04-23T10:44:52.357Z,22.69
2019-04-23T10:48:15.519Z,22.68
2019-04-23T10:50:55.391Z,22.47
2019-04-23T10:53:38.305Z,22.51
2019-04-23T10:58:35.176Z,22.79
2019-04-23T11:01:21.369Z,22.90
2019-04-23T11:03:49.170Z,23.00
2019-04-23T11:06:17.635Z,23.07
2019-04-23T11:08:42.476Z,23.11
2019-04-23T11:11:14.597Z,22.85
2019-04-23T11:13:44.920Z,22.88
2019-04-23T11:21:38.449Z,23.36
2019-04-23T11:23:51.917Z,23.57
2019-04-23T11:26:32.737Z,23.71
2019-04-23T11:28:53.644Z,23.84
2019-04-23T11:31:35.356Z,24.00
2019-04-23T11:33:59.501Z,24.24
2019-04-23T11:36:53.608Z,24.45
2019-04-23T11:39:16.543Z,24.64
2019-04-23T11:41:58.362Z,24.89
2019-04-23T11:44:26.948Z,25.08
2019-04-23T11:47:14.028Z,25.30
2019-04-23T11:49:44.956Z,25.44
2019-04-23T11:54:31.736Z,25.97
2019-04-23T11:59:35.920Z,26.32
2019-04-23T12:02:40.311Z,26.37
2019-04-23T12:05:32.354Z,26.46
2019-04-23T12:08:37.843Z,26.51
2019-04-23T12:14:37.515Z,26.35
2019-04-23T12:17:08.225Z,26.56
2019-04-23T12:19:53.173Z,26.85
2019-04-23T12:22:01.103Z,27.04
2019-04-23T12:29:41.298Z,27.47
2019-04-23T12:43:11.652Z,27.47
2019-04-23T12:45:33.379Z,27.43
2019-04-23T12:50:45.402Z,27.24
2019-04-23T12:53:05.821Z,27.20
2019-04-23T12:55:36.267Z,27.20
2019-04-23T12:58:09.968Z,27.12
2019-04-23T13:00:47.955Z,27.00
2019-04-23T13:03:21.586Z,26.93
2019-04-23T13:05:33.930Z,26.51
2019-04-23T13:10:45.485Z,26.42
2019-04-23T13:13:18.207Z,26.50
2019-04-23T13:18:29.508Z,26.64
2019-04-23T13:21:01.602Z,26.68
2019-04-23T13:23:32.537Z,26.45
2019-04-23T13:25:57.108Z,26.17
2019-04-23T13:38:56.988Z,25.57
2019-04-23T13:41:46.044Z,25.42
2019-04-23T13:43:52.659Z,25.28
2019-04-23T13:46:39.863Z,25.24
2019-04-23T13:49:08.039Z,25.20
2019-04-23T13:52:02.944Z,25.15
2019-04-23T13:54:17.064Z,25.16
2019-04-23T13:57:12.985Z,25.18
2019-04-23T13:59:31.435Z,25.23
2019-04-23T14:01:39.925Z,25.16
2019-04-23T14:04:39.777Z,25.08
2019-04-23T14:06:59.524Z,25.04
2019-04-23T14:09:39.516Z,25.07
2019-04-23T14:12:02.053Z,25.07
2019-04-23T14:17:38.062Z,25.07
2019-04-23T14:19:47.567Z,25.05
2019-04-23T14:22:47.702Z,25.01
2019-04-23T14:27:26.536Z,24.86
2019-04-23T14:30:09.324Z,24.80
2019-04-23T14:32:29.334Z,24.81
2019-04-23T14:35:04.781Z,24.82
2019-04-23T14:37:22.144Z,24.82
2019-04-23T14:40:21.915Z,24.77
2019-04-23T14:43:01.772Z,24.74
2019-04-23T14:45:46.785Z,24.74
2019-04-23T14:48:05.798Z,24.66
2019-04-23T14:53:12.122Z,24.70
2019-04-23T14:58:17.197Z,24.63
2019-04-23T15:00:52.975Z,24.64
2019-04-23T15:03:19.929Z,24.69
2019-04-23T15:05:58.048Z,24.71
2019-04-23T15:08:15.260Z,24.72
2019-04-23T15:10:55.945Z,24.75
2019-04-23T15:13:23.149Z,24.77
2019-04-23T15:15:53.433Z,24.78
2019-04-23T15:18:44.749Z,24.80
2019-04-23T15:21:34.308Z,24.82
2019-04-23T15:23:57.212Z,24.76
2019-04-23T15:27:02.535Z,24.75
2019-04-23T15:28:17.882Z,24.73
2019-04-23T15:31:23.498Z,24.78
2019-04-23T15:33:55.290Z,24.80
2019-04-23T15:36:32.535Z,24.81
2019-04-23T15:38:55.763Z,24.83
2019-04-23T15:41:23.668Z,24.82
2019-04-23T15:43:57.534Z,24.66
2019-04-23T15:46:32.673Z,24.64
2019-04-23T15:51:40.445Z,24.71
2019-04-23T15:54:03.085Z,24.72
2019-04-23T15:56:37.193Z,24.75
2019-04-23T15:59:21.042Z,24.75
2019-04-23T16:03:37.342Z,24.71
2019-04-23T16:06:08.718Z,24.70
2019-04-23T16:09:12.605Z,24.71
2019-04-23T16:11:45.391Z,24.74
2019-04-23T16:16:46.321Z,24.71
2019-04-23T16:19:38.510Z,24.67
2019-04-23T16:22:18.776Z,24.69
2019-04-23T16:24:37.125Z,24.69
2019-04-23T16:29:54.166Z,24.71
2019-04-23T16:32:25.688Z,24.77
2019-04-23T16:34:39.391Z,24.85
2019-04-23T16:39:55.939Z,24.95
2019-04-23T16:42:27.339Z,24.94
2019-04-23T16:47:26.114Z,24.88
2019-04-23T16:50:04.740Z,24.84
2019-04-23T16:54:59.701Z,24.70
2019-04-23T16:57:35.692Z,24.65
2019-04-23T17:00:13.258Z,24.65
2019-04-23T17:02:54.768Z,24.65
2019-04-23T17:05:12.526Z,24.63
2019-04-23T17:07:38.166Z,24.66
2019-04-23T17:12:42.926Z,24.65
2019-04-23T17:15:25.998Z,24.63
2019-04-23T17:17:43.326Z,24.65
2019-04-23T17:22:38.458Z,24.62
2019-04-23T17:25:26.533Z,24.61
2019-04-23T17:27:48.464Z,24.59
2019-04-23T17:30:23.890Z,24.57
2019-04-23T17:32:57.107Z,24.56
2019-04-23T17:35:30.114Z,24.53
2019-04-23T17:38:07.206Z,24.50
2019-04-23T17:41:01.916Z,24.47
2019-04-23T17:43:32.776Z,24.42
2019-04-23T17:45:56.633Z,24.36
2019-04-23T17:48:35.004Z,24.31
2019-04-23T17:51:11.575Z,24.27
2019-04-23T17:56:34.052Z,24.19
2019-04-23T18:04:10.671Z,24.04
2019-04-23T18:06:37.311Z,23.99
2019-04-23T18:19:14.195Z,23.73
2019-04-23T18:22:05.512Z,23.67
2019-04-23T18:24:41.315Z,23.62
2019-04-23T18:27:21.798Z,23.56
2019-04-23T18:30:01.098Z,23.50
2019-04-23T18:33:33.844Z,23.45
2019-04-23T18:35:28.242Z,23.41
2019-04-23T18:37:56.381Z,23.36
2019-04-23T18:40:28.772Z,23.31
2019-04-23T18:43:07.350Z,23.27
2019-04-23T18:45:38.685Z,23.21
2019-04-23T18:48:39.162Z,23.16
2019-04-23T18:51:00.339Z,23.11
2019-04-23T18:53:40.966Z,23.06
2019-04-23T18:56:06.801Z,22.99
2019-04-23T19:06:34.392Z,22.82
2019-04-23T19:09:18.172Z,22.79
2019-04-23T19:15:06.060Z,22.69
2019-04-23T19:17:42.043Z,22.63
2019-04-23T19:19:56.425Z,22.60
2019-04-23T19:24:55.039Z,22.51
2019-04-23T19:27:25.774Z,22.50
2019-04-23T19:30:26.514Z,22.47
2019-04-23T19:32:43.171Z,22.44
2019-04-23T19:35:16.243Z,22.41
2019-04-23T19:37:51.043Z,22.38
2019-04-23T19:40:10.546Z,22.34
2019-04-23T19:42:44.239Z,22.29
2019-04-23T19:45:15.990Z,22.28
2019-04-23T19:47:56.834Z,22.28
2019-04-23T19:50:29.905Z,22.25
2019-04-23T19:53:03.501Z,22.22
2019-04-23T19:55:24.188Z,22.22
2019-04-23T19:58:04.696Z,22.19
2019-04-23T20:00:44.393Z,22.18
2019-04-23T20:03:22.205Z,22.18
2019-04-23T20:05:47.026Z,22.13
2019-04-23T20:08:29.799Z,22.09
2019-04-23T20:10:46.351Z,22.07
2019-04-23T20:13:21.747Z,22.06
2019-04-23T20:18:39.859Z,22.02
2019-04-23T20:20:55.013Z,22.01
2019-04-23T20:23:45.441Z,22.00
2019-04-23T20:29:12.025Z,21.93
2019-04-23T20:34:24.501Z,21.88
2019-04-23T20:39:32.734Z,21.84
2019-04-23T20:44:37.353Z,21.81
2019-04-23T20:49:42.343Z,21.76
2019-04-23T20:52:05.035Z,21.75
2019-04-23T20:57:39.800Z,21.67
2019-04-23T21:05:29.923Z,21.60
2019-04-23T21:08:14.760Z,21.59
2019-04-23T21:13:34.380Z,21.49
2019-04-23T21:15:45.650Z,21.46
2019-04-23T21:18:23.953Z,21.44
2019-04-23T21:21:00.604Z,21.42
2019-04-23T21:25:47.525Z,21.46
2019-04-23T21:28:44.375Z,21.38
2019-04-23T21:31:19.494Z,21.40
2019-04-23T21:33:44.023Z,21.41
2019-04-23T21:39:15.450Z,21.34
2019-04-23T21:42:14.840Z,21.31
2019-04-23T21:44:40.731Z,21.31
2019-04-23T21:47:08.567Z,21.31
2019-04-23T21:49:57.927Z,21.27
2019-04-23T21:52:12.925Z,21.27
2019-04-23T21:57:14.641Z,21.26
2019-04-23T21:59:50.571Z,21.24
2019-04-23T22:02:23.910Z,21.23
2019-04-23T22:04:52.508Z,21.23
2019-04-23T22:07:29.366Z,21.20
2019-04-23T22:10:00.525Z,21.17
2019-04-23T22:12:23.262Z,21.17
2019-04-23T22:14:50.761Z,21.12
2019-04-23T22:20:19.387Z,21.06
2019-04-23T22:22:44.212Z,21.00
2019-04-23T22:24:57.235Z,20.98
2019-04-23T22:27:35.455Z,20.96
2019-04-23T22:30:01.288Z,20.92
2019-04-23T22:32:47.405Z,20.88
2019-04-23T22:35:07.978Z,20.86
2019-04-23T22:37:42.647Z,20.83
2019-04-23T22:40:06.016Z,20.80
2019-04-23T22:47:47.985Z,20.70
2019-04-23T22:52:48.483Z,20.63
2019-04-23T22:55:32.779Z,20.60
2019-04-23T23:00:16.539Z,20.52
2019-04-23T23:05:59.092Z,20.44
2019-04-23T23:08:13.461Z,20.39
2019-04-23T23:10:50.574Z,20.38
2019-04-23T23:13:20.695Z,20.34
2019-04-23T23:15:53.343Z,20.35
2019-04-23T23:23:40.865Z,20.25
2019-04-23T23:25:54.006Z,20.23
2019-04-23T23:28:26.896Z,20.22
2019-04-23T23:33:35.853Z,20.16
2019-04-23T23:41:12.559Z,20.12
2019-04-23T23:43:29.969Z,20.09
2019-04-23T23:46:15.263Z,20.08
2019-04-23T23:48:35.977Z,20.07
2019-04-23T23:51:17.426Z,20.03
2019-04-23T23:53:50.966Z,20.04
2019-04-23T23:58:52.627Z,19.93
